Terminal Aerodrome Forecast
Issued by NWS

Home | Current Version | Previous Version | Graphics & Text | Print | Product List | Glossary On
Versions: 1 2 3 4 5 6 7 8 9 10 11 12 13 14
000
FTUS45 KGGW 150522
TAFOLF
TAF
KOLF 150522Z 1506/1606 07004KT 5SM BR SCT050
     FM150900 VRB03KT 1/4SM FG BKN002
     FM151400 VRB03KT 2SM BR SCT045
     FM151500 27004KT P6SM SCT120
     FM152100 31009KT P6SM FEW110
     FM160200 02005KT P6SM FEW130=

USA.gov is the U.S. government's official web portal to all federal, state and local government web resources and services.